sensor_id;sensor_type;location;lat;lon;timestamp;temperature;humidity
53422;DHT22;39319;52.944;5.928;2022-07-29T00:00:07;17.50;88.00
53422;DHT22;39319;52.944;5.928;2022-07-29T00:02:34;17.50;88.20
53422;DHT22;39319;52.944;5.928;2022-07-29T00:05:01;17.50;88.50
53422;DHT22;39319;52.944;5.928;2022-07-29T00:07:27;17.50;88.70
53422;DHT22;39319;52.944;5.928;2022-07-29T00:09:53;17.40;88.20
53422;DHT22;39319;52.944;5.928;2022-07-29T00:12:20;17.40;88.30
53422;DHT22;39319;52.944;5.928;2022-07-29T00:14:46;17.40;88.60
53422;DHT22;39319;52.944;5.928;2022-07-29T00:17:11;17.40;88.80
53422;DHT22;39319;52.944;5.928;2022-07-29T00:19:37;17.40;88.70
53422;DHT22;39319;52.944;5.928;2022-07-29T00:22:03;17.40;89.00
53422;DHT22;39319;52.944;5.928;2022-07-29T00:24:28;17.40;89.30
53422;DHT22;39319;52.944;5.928;2022-07-29T00:26:54;17.40;89.20
53422;DHT22;39319;52.944;5.928;2022-07-29T00:29:20;17.40;89.20
53422;DHT22;39319;52.944;5.928;2022-07-29T00:31:45;17.40;89.20
53422;DHT22;39319;52.944;5.928;2022-07-29T00:34:11;17.40;89.30
53422;DHT22;39319;52.944;5.928;2022-07-29T00:36:57;17.30;89.50
53422;DHT22;39319;52.944;5.928;2022-07-29T00:39:23;17.30;89.70
53422;DHT22;39319;52.944;5.928;2022-07-29T00:41:49;17.30;89.60
53422;DHT22;39319;52.944;5.928;2022-07-29T00:44:16;17.30;89.50
53422;DHT22;39319;52.944;5.928;2022-07-29T00:46:41;17.30;90.20
53422;DHT22;39319;52.944;5.928;2022-07-29T00:49:07;17.20;89.80
53422;DHT22;39319;52.944;5.928;2022-07-29T00:51:37;17.30;90.00
53422;DHT22;39319;52.944;5.928;2022-07-29T00:54:03;17.20;90.10
53422;DHT22;39319;52.944;5.928;2022-07-29T00:56:33;17.20;90.20
53422;DHT22;39319;52.944;5.928;2022-07-29T00:59:01;17.10;90.30
53422;DHT22;39319;52.944;5.928;2022-07-29T01:01:26;17.20;90.30
53422;DHT22;39319;52.944;5.928;2022-07-29T01:03:53;17.10;90.40
53422;DHT22;39319;52.944;5.928;2022-07-29T01:06:20;17.10;90.50
53422;DHT22;39319;52.944;5.928;2022-07-29T01:08:47;17.10;90.60
53422;DHT22;39319;52.944;5.928;2022-07-29T01:11:14;17.10;90.50
53422;DHT22;39319;52.944;5.928;2022-07-29T01:13:44;17.10;90.80
53422;DHT22;39319;52.944;5.928;2022-07-29T01:16:18;17.10;90.70
53422;DHT22;39319;52.944;5.928;2022-07-29T01:18:47;17.10;90.60
53422;DHT22;39319;52.944;5.928;2022-07-29T01:21:33;17.10;90.90
53422;DHT22;39319;52.944;5.928;2022-07-29T01:27:15;17.10;90.90
53422;DHT22;39319;52.944;5.928;2022-07-29T01:29:57;17.00;90.90
53422;DHT22;39319;52.944;5.928;2022-07-29T01:32:33;17.10;91.10
53422;DHT22;39319;52.944;5.928;2022-07-29T01:35:31;17.10;91.20
53422;DHT22;39319;52.944;5.928;2022-07-29T01:38:20;17.00;91.10
53422;DHT22;39319;52.944;5.928;2022-07-29T01:41:01;17.00;91.20
53422;DHT22;39319;52.944;5.928;2022-07-29T01:43:35;17.00;91.30
53422;DHT22;39319;52.944;5.928;2022-07-29T01:46:09;17.00;91.30
53422;DHT22;39319;52.944;5.928;2022-07-29T01:48:45;17.00;91.40
53422;DHT22;39319;52.944;5.928;2022-07-29T01:51:19;17.00;91.50
53422;DHT22;39319;52.944;5.928;2022-07-29T01:54:02;17.00;91.60
53422;DHT22;39319;52.944;5.928;2022-07-29T01:56:31;17.00;91.50
53422;DHT22;39319;52.944;5.928;2022-07-29T01:58:59;17.00;91.60
53422;DHT22;39319;52.944;5.928;2022-07-29T02:01:27;17.00;91.60
53422;DHT22;39319;52.944;5.928;2022-07-29T02:03:55;17.00;91.70
53422;DHT22;39319;52.944;5.928;2022-07-29T02:06:23;17.00;91.70
53422;DHT22;39319;52.944;5.928;2022-07-29T02:08:52;17.00;91.70
53422;DHT22;39319;52.944;5.928;2022-07-29T02:11:19;17.00;91.70
53422;DHT22;39319;52.944;5.928;2022-07-29T02:13:45;16.90;91.90
53422;DHT22;39319;52.944;5.928;2022-07-29T02:16:15;16.90;91.80
53422;DHT22;39319;52.944;5.928;2022-07-29T02:18:42;16.90;92.00
53422;DHT22;39319;52.944;5.928;2022-07-29T02:21:10;16.90;92.10
53422;DHT22;39319;52.944;5.928;2022-07-29T02:23:37;16.80;92.10
53422;DHT22;39319;52.944;5.928;2022-07-29T02:26:05;16.80;92.10
53422;DHT22;39319;52.944;5.928;2022-07-29T02:28:33;16.80;92.20
53422;DHT22;39319;52.944;5.928;2022-07-29T02:31:01;16.80;92.20
53422;DHT22;39319;52.944;5.928;2022-07-29T02:33:28;16.80;92.20
53422;DHT22;39319;52.944;5.928;2022-07-29T02:35:57;16.80;92.20
53422;DHT22;39319;52.944;5.928;2022-07-29T02:38:25;16.80;92.30
53422;DHT22;39319;52.944;5.928;2022-07-29T02:41:15;16.80;92.30
53422;DHT22;39319;52.944;5.928;2022-07-29T02:43:43;16.80;92.40
53422;DHT22;39319;52.944;5.928;2022-07-29T02:46:14;16.80;92.40
53422;DHT22;39319;52.944;5.928;2022-07-29T02:48:50;16.70;92.40
53422;DHT22;39319;52.944;5.928;2022-07-29T02:51:21;16.70;92.50
53422;DHT22;39319;52.944;5.928;2022-07-29T02:53:51;16.70;92.40
53422;DHT22;39319;52.944;5.928;2022-07-29T02:56:18;16.70;92.50
53422;DHT22;39319;52.944;5.928;2022-07-29T02:58:54;16.70;92.40
53422;DHT22;39319;52.944;5.928;2022-07-29T03:01:23;16.70;92.50
53422;DHT22;39319;52.944;5.928;2022-07-29T03:03:53;16.70;92.60
53422;DHT22;39319;52.944;5.928;2022-07-29T03:06:24;16.70;92.60
53422;DHT22;39319;52.944;5.928;2022-07-29T03:08:51;16.60;92.70
53422;DHT22;39319;52.944;5.928;2022-07-29T03:11:18;16.60;92.70
53422;DHT22;39319;52.944;5.928;2022-07-29T03:13:44;16.60;92.70
53422;DHT22;39319;52.944;5.928;2022-07-29T03:16:10;16.60;92.80
53422;DHT22;39319;52.944;5.928;2022-07-29T03:18:37;16.60;92.80
53422;DHT22;39319;52.944;5.928;2022-07-29T03:21:06;16.60;92.80
53422;DHT22;39319;52.944;5.928;2022-07-29T03:23:31;16.60;92.80
53422;DHT22;39319;52.944;5.928;2022-07-29T03:25:58;16.60;92.90
53422;DHT22;39319;52.944;5.928;2022-07-29T03:28:24;16.50;92.90
53422;DHT22;39319;52.944;5.928;2022-07-29T03:30:52;16.50;93.00
53422;DHT22;39319;52.944;5.928;2022-07-29T03:33:18;16.50;93.10
53422;DHT22;39319;52.944;5.928;2022-07-29T03:35:44;16.50;93.10
53422;DHT22;39319;52.944;5.928;2022-07-29T03:38:10;16.50;93.10
53422;DHT22;39319;52.944;5.928;2022-07-29T03:40:56;16.50;93.10
53422;DHT22;39319;52.944;5.928;2022-07-29T03:43:24;16.50;92.90
53422;DHT22;39319;52.944;5.928;2022-07-29T03:45:54;16.50;93.00
53422;DHT22;39319;52.944;5.928;2022-07-29T03:48:21;16.50;93.00
53422;DHT22;39319;52.944;5.928;2022-07-29T03:50:50;16.50;93.30
53422;DHT22;39319;52.944;5.928;2022-07-29T03:53:16;16.50;93.10
53422;DHT22;39319;52.944;5.928;2022-07-29T03:55:50;16.40;93.10
53422;DHT22;39319;52.944;5.928;2022-07-29T03:58:18;16.50;92.90
53422;DHT22;39319;52.944;5.928;2022-07-29T04:00:45;16.40;93.10
53422;DHT22;39319;52.944;5.928;2022-07-29T04:03:12;16.50;93.40
53422;DHT22;39319;52.944;5.928;2022-07-29T04:05:38;16.40;93.20
53422;DHT22;39319;52.944;5.928;2022-07-29T04:08:05;16.80;93.30
53422;DHT22;39319;52.944;5.928;2022-07-29T04:10:31;16.40;93.30
53422;DHT22;39319;52.944;5.928;2022-07-29T04:12:57;16.40;93.30
53422;DHT22;39319;52.944;5.928;2022-07-29T04:15:23;16.40;93.30
53422;DHT22;39319;52.944;5.928;2022-07-29T04:17:49;16.40;93.30
53422;DHT22;39319;52.944;5.928;2022-07-29T04:20:15;16.30;93.40
53422;DHT22;39319;52.944;5.928;2022-07-29T04:22:42;16.30;93.40
53422;DHT22;39319;52.944;5.928;2022-07-29T04:25:08;16.30;93.40
53422;DHT22;39319;52.944;5.928;2022-07-29T04:27:34;16.30;93.40
53422;DHT22;39319;52.944;5.928;2022-07-29T04:29:59;16.30;93.50
53422;DHT22;39319;52.944;5.928;2022-07-29T04:32:25;16.30;93.50
53422;DHT22;39319;52.944;5.928;2022-07-29T04:34:54;16.20;93.50
53422;DHT22;39319;52.944;5.928;2022-07-29T04:37:19;16.30;93.60
53422;DHT22;39319;52.944;5.928;2022-07-29T04:39:45;16.30;93.60
53422;DHT22;39319;52.944;5.928;2022-07-29T04:42:11;16.30;93.60
53422;DHT22;39319;52.944;5.928;2022-07-29T04:44:36;16.30;93.60
53422;DHT22;39319;52.944;5.928;2022-07-29T04:47:03;16.30;93.70
53422;DHT22;39319;52.944;5.928;2022-07-29T04:49:29;16.20;93.70
53422;DHT22;39319;52.944;5.928;2022-07-29T04:51:55;16.20;93.70
53422;DHT22;39319;52.944;5.928;2022-07-29T04:54:20;16.20;94.00
53422;DHT22;39319;52.944;5.928;2022-07-29T04:56:46;16.20;93.90
53422;DHT22;39319;52.944;5.928;2022-07-29T04:59:12;16.20;94.00
53422;DHT22;39319;52.944;5.928;2022-07-29T05:01:38;16.20;94.00
53422;DHT22;39319;52.944;5.928;2022-07-29T05:04:03;16.20;94.10
53422;DHT22;39319;52.944;5.928;2022-07-29T05:06:29;16.20;94.10
53422;DHT22;39319;52.944;5.928;2022-07-29T05:08:55;16.10;94.20
53422;DHT22;39319;52.944;5.928;2022-07-29T05:11:21;16.10;94.20
53422;DHT22;39319;52.944;5.928;2022-07-29T05:13:47;16.20;94.20
53422;DHT22;39319;52.944;5.928;2022-07-29T05:16:13;16.20;94.20
53422;DHT22;39319;52.944;5.928;2022-07-29T05:18:39;16.20;94.30
53422;DHT22;39319;52.944;5.928;2022-07-29T05:21:04;16.20;94.30
53422;DHT22;39319;52.944;5.928;2022-07-29T05:23:30;16.20;94.30
53422;DHT22;39319;52.944;5.928;2022-07-29T05:25:56;16.20;94.30
53422;DHT22;39319;52.944;5.928;2022-07-29T05:28:22;16.20;94.30
53422;DHT22;39319;52.944;5.928;2022-07-29T05:30:47;16.20;94.50
53422;DHT22;39319;52.944;5.928;2022-07-29T05:33:14;16.20;94.50
53422;DHT22;39319;52.944;5.928;2022-07-29T05:35:40;16.20;94.80
53422;DHT22;39319;52.944;5.928;2022-07-29T05:38:06;16.30;94.50
53422;DHT22;39319;52.944;5.928;2022-07-29T05:40:31;16.30;94.60
53422;DHT22;39319;52.944;5.928;2022-07-29T05:42:57;16.30;94.60
53422;DHT22;39319;52.944;5.928;2022-07-29T05:45:25;16.40;94.60
53422;DHT22;39319;52.944;5.928;2022-07-29T05:47:51;16.40;94.50
53422;DHT22;39319;52.944;5.928;2022-07-29T05:50:16;16.50;94.30
53422;DHT22;39319;52.944;5.928;2022-07-29T05:52:42;16.50;94.30
53422;DHT22;39319;52.944;5.928;2022-07-29T05:55:08;16.60;94.50
53422;DHT22;39319;52.944;5.928;2022-07-29T05:57:34;16.60;94.40
53422;DHT22;39319;52.944;5.928;2022-07-29T06:00:00;16.70;94.10
53422;DHT22;39319;52.944;5.928;2022-07-29T06:02:25;16.80;94.30
53422;DHT22;39319;52.944;5.928;2022-07-29T06:04:52;16.80;93.90
53422;DHT22;39319;52.944;5.928;2022-07-29T06:07:17;16.90;93.80
53422;DHT22;39319;52.944;5.928;2022-07-29T06:09:44;17.00;93.40
53422;DHT22;39319;52.944;5.928;2022-07-29T06:12:10;17.00;93.80
53422;DHT22;39319;52.944;5.928;2022-07-29T06:14:35;17.10;93.60
53422;DHT22;39319;52.944;5.928;2022-07-29T06:17:03;17.10;93.40
53422;DHT22;39319;52.944;5.928;2022-07-29T06:19:29;17.20;93.90
53422;DHT22;39319;52.944;5.928;2022-07-29T06:21:55;17.20;93.80
53422;DHT22;39319;52.944;5.928;2022-07-29T06:24:21;17.30;93.60
53422;DHT22;39319;52.944;5.928;2022-07-29T06:26:46;17.30;93.10
53422;DHT22;39319;52.944;5.928;2022-07-29T06:29:12;17.40;93.10
53422;DHT22;39319;52.944;5.928;2022-07-29T06:31:38;17.40;93.20
53422;DHT22;39319;52.944;5.928;2022-07-29T06:34:04;17.50;93.10
53422;DHT22;39319;52.944;5.928;2022-07-29T06:36:33;17.50;93.00
53422;DHT22;39319;52.944;5.928;2022-07-29T06:39:05;17.50;93.50
53422;DHT22;39319;52.944;5.928;2022-07-29T06:41:31;17.60;93.40
53422;DHT22;39319;52.944;5.928;2022-07-29T06:43:57;17.60;93.20
53422;DHT22;39319;52.944;5.928;2022-07-29T06:46:25;17.70;92.70
53422;DHT22;39319;52.944;5.928;2022-07-29T06:48:53;17.70;92.80
53422;DHT22;39319;52.944;5.928;2022-07-29T06:51:24;17.80;93.10
53422;DHT22;39319;52.944;5.928;2022-07-29T06:53:53;17.80;92.80
53422;DHT22;39319;52.944;5.928;2022-07-29T06:56:19;17.90;92.70
53422;DHT22;39319;52.944;5.928;2022-07-29T06:58:45;18.00;92.90
53422;DHT22;39319;52.944;5.928;2022-07-29T07:01:11;18.10;92.60
53422;DHT22;39319;52.944;5.928;2022-07-29T07:03:37;18.20;91.70
53422;DHT22;39319;52.944;5.928;2022-07-29T07:06:06;18.20;91.80
53422;DHT22;39319;52.944;5.928;2022-07-29T07:08:31;18.30;91.90
53422;DHT22;39319;52.944;5.928;2022-07-29T07:10:57;18.30;91.80
53422;DHT22;39319;52.944;5.928;2022-07-29T07:13:23;18.50;92.00
53422;DHT22;39319;52.944;5.928;2022-07-29T07:15:49;18.50;92.30
53422;DHT22;39319;52.944;5.928;2022-07-29T07:18:18;18.60;91.90
53422;DHT22;39319;52.944;5.928;2022-07-29T07:20:44;18.70;91.30
53422;DHT22;39319;52.944;5.928;2022-07-29T07:23:10;18.70;90.60
53422;DHT22;39319;52.944;5.928;2022-07-29T07:25:36;18.70;91.30
53422;DHT22;39319;52.944;5.928;2022-07-29T07:28:02;18.80;91.70
53422;DHT22;39319;52.944;5.928;2022-07-29T07:30:28;18.90;91.30
53422;DHT22;39319;52.944;5.928;2022-07-29T07:32:57;18.90;90.80
53422;DHT22;39319;52.944;5.928;2022-07-29T07:35:22;18.90;91.00
53422;DHT22;39319;52.944;5.928;2022-07-29T07:37:49;18.90;90.90
53422;DHT22;39319;52.944;5.928;2022-07-29T07:40:14;18.90;90.80
53422;DHT22;39319;52.944;5.928;2022-07-29T07:42:41;18.90;91.00
53422;DHT22;39319;52.944;5.928;2022-07-29T07:45:08;18.90;90.80
53422;DHT22;39319;52.944;5.928;2022-07-29T07:47:37;18.80;90.60
53422;DHT22;39319;52.944;5.928;2022-07-29T07:50:10;18.80;90.70
53422;DHT22;39319;52.944;5.928;2022-07-29T07:52:48;18.80;90.70
53422;DHT22;39319;52.944;5.928;2022-07-29T07:55:15;18.80;90.90
53422;DHT22;39319;52.944;5.928;2022-07-29T07:57:41;18.80;91.10
53422;DHT22;39319;52.944;5.928;2022-07-29T08:00:09;18.80;91.30
53422;DHT22;39319;52.944;5.928;2022-07-29T08:02:35;18.80;91.10
53422;DHT22;39319;52.944;5.928;2022-07-29T08:05:06;18.70;90.90
53422;DHT22;39319;52.944;5.928;2022-07-29T08:07:34;18.70;91.30
53422;DHT22;39319;52.944;5.928;2022-07-29T08:10:00;18.70;90.90
53422;DHT22;39319;52.944;5.928;2022-07-29T08:12:25;18.70;90.90
53422;DHT22;39319;52.944;5.928;2022-07-29T08:14:51;18.70;91.00
53422;DHT22;39319;52.944;5.928;2022-07-29T08:17:16;18.70;91.40
53422;DHT22;39319;52.944;5.928;2022-07-29T08:19:42;18.60;91.30
53422;DHT22;39319;52.944;5.928;2022-07-29T08:22:08;18.60;92.20
53422;DHT22;39319;52.944;5.928;2022-07-29T08:24:33;18.50;92.70
53422;DHT22;39319;52.944;5.928;2022-07-29T08:27:10;18.40;92.60
53422;DHT22;39319;52.944;5.928;2022-07-29T08:29:36;18.40;92.90
53422;DHT22;39319;52.944;5.928;2022-07-29T08:32:02;18.30;93.20
53422;DHT22;39319;52.944;5.928;2022-07-29T08:34:28;18.30;93.50
53422;DHT22;39319;52.944;5.928;2022-07-29T08:36:57;18.30;93.60
53422;DHT22;39319;52.944;5.928;2022-07-29T08:39:23;18.20;94.10
53422;DHT22;39319;52.944;5.928;2022-07-29T08:41:50;18.20;94.20
53422;DHT22;39319;52.944;5.928;2022-07-29T08:44:18;18.10;93.70
53422;DHT22;39319;52.944;5.928;2022-07-29T08:46:44;18.20;94.10
53422;DHT22;39319;52.944;5.928;2022-07-29T08:49:10;18.10;94.60
53422;DHT22;39319;52.944;5.928;2022-07-29T08:51:36;18.10;94.50
53422;DHT22;39319;52.944;5.928;2022-07-29T08:54:05;18.20;94.90
53422;DHT22;39319;52.944;5.928;2022-07-29T08:56:32;18.20;94.90
53422;DHT22;39319;52.944;5.928;2022-07-29T08:58:58;18.30;95.00
53422;DHT22;39319;52.944;5.928;2022-07-29T09:01:27;18.40;94.60
53422;DHT22;39319;52.944;5.928;2022-07-29T09:03:56;18.50;93.90
53422;DHT22;39319;52.944;5.928;2022-07-29T09:06:25;18.50;94.40
53422;DHT22;39319;52.944;5.928;2022-07-29T09:08:58;18.60;94.40
53422;DHT22;39319;52.944;5.928;2022-07-29T09:11:24;18.80;94.00
53422;DHT22;39319;52.944;5.928;2022-07-29T09:13:50;18.90;94.00
53422;DHT22;39319;52.944;5.928;2022-07-29T09:16:16;19.10;94.20
53422;DHT22;39319;52.944;5.928;2022-07-29T09:18:44;19.30;93.80
53422;DHT22;39319;52.944;5.928;2022-07-29T09:21:15;19.30;92.10
53422;DHT22;39319;52.944;5.928;2022-07-29T09:24:06;19.40;91.80
53422;DHT22;39319;52.944;5.928;2022-07-29T09:26:34;19.40;92.10
53422;DHT22;39319;52.944;5.928;2022-07-29T09:29:01;19.50;92.10
53422;DHT22;39319;52.944;5.928;2022-07-29T09:31:40;19.40;91.20
53422;DHT22;39319;52.944;5.928;2022-07-29T09:34:08;19.40;91.50
53422;DHT22;39319;52.944;5.928;2022-07-29T09:36:44;19.40;91.90
53422;DHT22;39319;52.944;5.928;2022-07-29T09:39:10;19.40;91.30
53422;DHT22;39319;52.944;5.928;2022-07-29T09:41:47;19.40;91.50
53422;DHT22;39319;52.944;5.928;2022-07-29T09:44:13;19.40;91.10
53422;DHT22;39319;52.944;5.928;2022-07-29T09:47:01;19.40;90.90
53422;DHT22;39319;52.944;5.928;2022-07-29T09:49:34;19.40;91.00
53422;DHT22;39319;52.944;5.928;2022-07-29T09:52:06;19.40;91.00
53422;DHT22;39319;52.944;5.928;2022-07-29T09:54:32;19.40;91.50
53422;DHT22;39319;52.944;5.928;2022-07-29T09:57:09;19.40;91.80
53422;DHT22;39319;52.944;5.928;2022-07-29T09:59:59;19.40;91.90
53422;DHT22;39319;52.944;5.928;2022-07-29T10:02:30;19.40;91.60
53422;DHT22;39319;52.944;5.928;2022-07-29T10:04:57;19.40;91.00
53422;DHT22;39319;52.944;5.928;2022-07-29T10:07:24;19.40;92.20
53422;DHT22;39319;52.944;5.928;2022-07-29T10:09:54;19.50;91.90
53422;DHT22;39319;52.944;5.928;2022-07-29T10:12:20;19.50;91.40
53422;DHT22;39319;52.944;5.928;2022-07-29T10:14:49;19.50;91.90
53422;DHT22;39319;52.944;5.928;2022-07-29T10:17:17;19.60;91.70
53422;DHT22;39319;52.944;5.928;2022-07-29T10:19:44;19.60;91.80
53422;DHT22;39319;52.944;5.928;2022-07-29T10:22:10;19.60;91.70
53422;DHT22;39319;52.944;5.928;2022-07-29T10:24:37;19.70;91.90
53422;DHT22;39319;52.944;5.928;2022-07-29T10:27:05;19.70;91.30
53422;DHT22;39319;52.944;5.928;2022-07-29T10:29:32;19.70;91.60
53422;DHT22;39319;52.944;5.928;2022-07-29T10:34:51;19.80;91.80
53422;DHT22;39319;52.944;5.928;2022-07-29T10:37:31;19.90;91.70
53422;DHT22;39319;52.944;5.928;2022-07-29T10:43:25;20.10;90.90
53422;DHT22;39319;52.944;5.928;2022-07-29T10:45:56;20.20;91.30
53422;DHT22;39319;52.944;5.928;2022-07-29T10:48:25;20.20;91.30
53422;DHT22;39319;52.944;5.928;2022-07-29T10:50:58;20.20;91.20
53422;DHT22;39319;52.944;5.928;2022-07-29T10:53:52;20.30;90.70
53422;DHT22;39319;52.944;5.928;2022-07-29T10:56:32;20.40;90.50
53422;DHT22;39319;52.944;5.928;2022-07-29T11:01:46;20.50;90.40
53422;DHT22;39319;52.944;5.928;2022-07-29T11:04:13;20.60;90.40
53422;DHT22;39319;52.944;5.928;2022-07-29T11:07:06;20.70;91.30
53422;DHT22;39319;52.944;5.928;2022-07-29T11:09:33;20.80;90.70
53422;DHT22;39319;52.944;5.928;2022-07-29T11:11:59;20.90;90.40
53422;DHT22;39319;52.944;5.928;2022-07-29T11:17:19;21.00;89.90
53422;DHT22;39319;52.944;5.928;2022-07-29T11:19:45;21.10;90.10
53422;DHT22;39319;52.944;5.928;2022-07-29T11:22:11;21.10;90.20
53422;DHT22;39319;52.944;5.928;2022-07-29T11:25:17;21.10;90.00
53422;DHT22;39319;52.944;5.928;2022-07-29T11:27:44;21.20;89.20
53422;DHT22;39319;52.944;5.928;2022-07-29T11:30:10;21.30;89.70
53422;DHT22;39319;52.944;5.928;2022-07-29T11:32:42;21.30;90.30
53422;DHT22;39319;52.944;5.928;2022-07-29T11:35:18;21.40;88.50
53422;DHT22;39319;52.944;5.928;2022-07-29T11:38:24;21.50;87.50
53422;DHT22;39319;52.944;5.928;2022-07-29T11:41:27;21.50;88.10
53422;DHT22;39319;52.944;5.928;2022-07-29T11:43:59;21.60;88.00
53422;DHT22;39319;52.944;5.928;2022-07-29T11:46:44;21.80;87.70
53422;DHT22;39319;52.944;5.928;2022-07-29T11:49:12;22.00;86.80
53422;DHT22;39319;52.944;5.928;2022-07-29T11:51:38;22.30;86.70
53422;DHT22;39319;52.944;5.928;2022-07-29T11:54:05;22.60;87.20
53422;DHT22;39319;52.944;5.928;2022-07-29T11:56:32;23.00;88.10
53422;DHT22;39319;52.944;5.928;2022-07-29T11:59:03;23.40;87.10
53422;DHT22;39319;52.944;5.928;2022-07-29T12:01:30;23.70;83.80
53422;DHT22;39319;52.944;5.928;2022-07-29T12:04:05;24.00;84.60
53422;DHT22;39319;52.944;5.928;2022-07-29T12:06:33;24.20;81.10
53422;DHT22;39319;52.944;5.928;2022-07-29T12:08:58;24.30;80.20
53422;DHT22;39319;52.944;5.928;2022-07-29T12:11:28;24.40;80.90
53422;DHT22;39319;52.944;5.928;2022-07-29T12:13:54;24.40;79.30
53422;DHT22;39319;52.944;5.928;2022-07-29T12:16:21;24.30;78.30
53422;DHT22;39319;52.944;5.928;2022-07-29T12:18:59;24.20;79.60
53422;DHT22;39319;52.944;5.928;2022-07-29T12:21:26;24.30;80.00
53422;DHT22;39319;52.944;5.928;2022-07-29T12:23:53;24.40;80.60
53422;DHT22;39319;52.944;5.928;2022-07-29T12:26:20;24.60;80.60
53422;DHT22;39319;52.944;5.928;2022-07-29T12:28:45;24.60;80.30
53422;DHT22;39319;52.944;5.928;2022-07-29T12:31:15;24.60;77.50
53422;DHT22;39319;52.944;5.928;2022-07-29T12:33:42;24.70;79.80
53422;DHT22;39319;52.944;5.928;2022-07-29T12:36:08;24.70;79.30
53422;DHT22;39319;52.944;5.928;2022-07-29T12:38:34;24.70;78.20
53422;DHT22;39319;52.944;5.928;2022-07-29T12:41:01;24.70;78.60
53422;DHT22;39319;52.944;5.928;2022-07-29T12:43:27;24.70;79.40
53422;DHT22;39319;52.944;5.928;2022-07-29T12:45:55;24.90;79.00
53422;DHT22;39319;52.944;5.928;2022-07-29T12:48:38;25.10;78.90
53422;DHT22;39319;52.944;5.928;2022-07-29T12:51:05;25.20;77.70
53422;DHT22;39319;52.944;5.928;2022-07-29T12:53:35;25.20;77.40
53422;DHT22;39319;52.944;5.928;2022-07-29T12:56:02;25.20;75.50
53422;DHT22;39319;52.944;5.928;2022-07-29T12:58:38;25.10;76.30
53422;DHT22;39319;52.944;5.928;2022-07-29T13:01:11;25.00;77.30
53422;DHT22;39319;52.944;5.928;2022-07-29T13:03:49;25.00;76.60
53422;DHT22;39319;52.944;5.928;2022-07-29T13:06:42;25.00;76.60
53422;DHT22;39319;52.944;5.928;2022-07-29T13:09:16;25.00;79.10
53422;DHT22;39319;52.944;5.928;2022-07-29T13:11:44;24.80;77.10
53422;DHT22;39319;52.944;5.928;2022-07-29T13:14:12;24.80;76.40
53422;DHT22;39319;52.944;5.928;2022-07-29T13:17:14;24.70;76.30
53422;DHT22;39319;52.944;5.928;2022-07-29T13:19:51;24.70;78.80
53422;DHT22;39319;52.944;5.928;2022-07-29T13:22:22;24.60;77.60
53422;DHT22;39319;52.944;5.928;2022-07-29T13:24:52;24.60;78.50
53422;DHT22;39319;52.944;5.928;2022-07-29T13:27:25;24.70;77.50
53422;DHT22;39319;52.944;5.928;2022-07-29T13:29:51;24.90;75.70
53422;DHT22;39319;52.944;5.928;2022-07-29T13:32:19;25.00;75.40
53422;DHT22;39319;52.944;5.928;2022-07-29T13:34:44;25.20;73.10
53422;DHT22;39319;52.944;5.928;2022-07-29T13:37:10;25.30;75.20
53422;DHT22;39319;52.944;5.928;2022-07-29T13:39:36;25.50;73.60
53422;DHT22;39319;52.944;5.928;2022-07-29T13:42:03;25.60;74.10
53422;DHT22;39319;52.944;5.928;2022-07-29T13:44:29;25.60;73.20
53422;DHT22;39319;52.944;5.928;2022-07-29T13:46:55;25.60;70.20
53422;DHT22;39319;52.944;5.928;2022-07-29T13:49:21;25.70;71.00
53422;DHT22;39319;52.944;5.928;2022-07-29T13:51:48;25.80;71.30
53422;DHT22;39319;52.944;5.928;2022-07-29T13:54:14;26.00;71.40
53422;DHT22;39319;52.944;5.928;2022-07-29T13:56:40;26.10;72.50
53422;DHT22;39319;52.944;5.928;2022-07-29T13:59:08;26.30;72.30
53422;DHT22;39319;52.944;5.928;2022-07-29T14:01:37;26.40;70.90
53422;DHT22;39319;52.944;5.928;2022-07-29T14:04:04;26.50;70.00
53422;DHT22;39319;52.944;5.928;2022-07-29T14:06:29;26.60;69.90
53422;DHT22;39319;52.944;5.928;2022-07-29T14:08:56;26.70;70.80
53422;DHT22;39319;52.944;5.928;2022-07-29T14:11:22;26.80;71.10
53422;DHT22;39319;52.944;5.928;2022-07-29T14:13:47;26.80;70.90
53422;DHT22;39319;52.944;5.928;2022-07-29T14:16:14;27.00;71.40
53422;DHT22;39319;52.944;5.928;2022-07-29T14:18:39;27.00;69.90
53422;DHT22;39319;52.944;5.928;2022-07-29T14:21:08;27.10;68.40
53422;DHT22;39319;52.944;5.928;2022-07-29T14:23:36;27.10;67.60
53422;DHT22;39319;52.944;5.928;2022-07-29T14:26:02;27.10;66.90
53422;DHT22;39319;52.944;5.928;2022-07-29T14:28:27;27.00;67.20
53422;DHT22;39319;52.944;5.928;2022-07-29T14:30:53;27.10;69.00
53422;DHT22;39319;52.944;5.928;2022-07-29T14:33:19;27.10;68.20
53422;DHT22;39319;52.944;5.928;2022-07-29T14:35:45;27.20;69.10
53422;DHT22;39319;52.944;5.928;2022-07-29T14:38:10;27.40;67.90
53422;DHT22;39319;52.944;5.928;2022-07-29T14:40:36;27.40;66.30
53422;DHT22;39319;52.944;5.928;2022-07-29T14:43:04;27.40;66.60
53422;DHT22;39319;52.944;5.928;2022-07-29T14:45:30;27.40;67.20
53422;DHT22;39319;52.944;5.928;2022-07-29T14:47:56;27.50;67.20
53422;DHT22;39319;52.944;5.928;2022-07-29T14:50:22;27.50;66.40
53422;DHT22;39319;52.944;5.928;2022-07-29T14:52:48;27.60;67.30
53422;DHT22;39319;52.944;5.928;2022-07-29T14:55:14;27.70;67.40
53422;DHT22;39319;52.944;5.928;2022-07-29T14:57:40;27.80;66.30
53422;DHT22;39319;52.944;5.928;2022-07-29T15:00:09;27.90;66.20
53422;DHT22;39319;52.944;5.928;2022-07-29T15:02:35;27.90;65.40
53422;DHT22;39319;52.944;5.928;2022-07-29T15:05:01;27.90;63.90
53422;DHT22;39319;52.944;5.928;2022-07-29T15:07:27;27.90;63.10
53422;DHT22;39319;52.944;5.928;2022-07-29T15:09:54;27.80;64.10
53422;DHT22;39319;52.944;5.928;2022-07-29T15:12:20;27.90;65.00
53422;DHT22;39319;52.944;5.928;2022-07-29T15:14:45;28.00;63.80
53422;DHT22;39319;52.944;5.928;2022-07-29T15:17:12;28.00;63.40
53422;DHT22;39319;52.944;5.928;2022-07-29T15:19:38;28.10;64.40
53422;DHT22;39319;52.944;5.928;2022-07-29T15:22:04;28.20;64.30
53422;DHT22;39319;52.944;5.928;2022-07-29T15:24:33;28.30;62.40
53422;DHT22;39319;52.944;5.928;2022-07-29T15:26:58;28.30;63.50
53422;DHT22;39319;52.944;5.928;2022-07-29T15:29:24;28.40;62.20
53422;DHT22;39319;52.944;5.928;2022-07-29T15:31:50;28.30;61.60
53422;DHT22;39319;52.944;5.928;2022-07-29T15:34:16;28.30;61.50
53422;DHT22;39319;52.944;5.928;2022-07-29T15:36:42;28.20;61.50
53422;DHT22;39319;52.944;5.928;2022-07-29T15:39:08;28.10;61.70
53422;DHT22;39319;52.944;5.928;2022-07-29T15:41:34;28.10;61.00
53422;DHT22;39319;52.944;5.928;2022-07-29T15:44:00;28.10;61.60
53422;DHT22;39319;52.944;5.928;2022-07-29T15:46:26;28.10;62.40
53422;DHT22;39319;52.944;5.928;2022-07-29T15:49:10;28.10;63.00
53422;DHT22;39319;52.944;5.928;2022-07-29T15:51:36;28.20;62.70
53422;DHT22;39319;52.944;5.928;2022-07-29T15:54:03;28.20;63.50